sensor_id;sensor_type;location;lat;lon;timestamp;pressure;altitude;pressure_sealevel;temperature;humidity
29485;BME280;16440;59.494;17.978;2022-08-21T00:00:59;100943.94;;;15.91;100.00
29485;BME280;16440;59.494;17.978;2022-08-21T00:03:31;100948.28;;;15.95;100.00
29485;BME280;16440;59.494;17.978;2022-08-21T00:06:02;100944.44;;;16.01;100.00
29485;BME280;16440;59.494;17.978;2022-08-21T00:08:32;100951.41;;;16.06;100.00
29485;BME280;16440;59.494;17.978;2022-08-21T00:11:01;100948.59;;;16.09;100.00
29485;BME280;16440;59.494;17.978;2022-08-21T00:16:03;100952.72;;;16.18;100.00
29485;BME280;16440;59.494;17.978;2022-08-21T00:21:11;100937.47;;;16.15;100.00
29485;BME280;16440;59.494;17.978;2022-08-21T00:23:49;100933.94;;;16.13;100.00
29485;BME280;16440;59.494;17.978;2022-08-21T00:26:18;100923.31;;;16.07;100.00
29485;BME280;16440;59.494;17.978;2022-08-21T00:28:47;100922.63;;;16.02;100.00
29485;BME280;16440;59.494;17.978;2022-08-21T00:31:19;100919.41;;;15.93;100.00
29485;BME280;16440;59.494;17.978;2022-08-21T00:33:55;100925.31;;;15.82;100.00
29485;BME280;16440;59.494;17.978;2022-08-21T00:36:24;100930.16;;;15.74;100.00
29485;BME280;16440;59.494;17.978;2022-08-21T00:38:57;100939.38;;;15.70;100.00
29485;BME280;16440;59.494;17.978;2022-08-21T00:41:29;100949.50;;;15.66;100.00
29485;BME280;16440;59.494;17.978;2022-08-21T00:44:04;100944.06;;;15.66;100.00
29485;BME280;16440;59.494;17.978;2022-08-21T00:49:03;100953.34;;;15.61;100.00
29485;BME280;16440;59.494;17.978;2022-08-21T00:54:05;100949.13;;;15.54;100.00
29485;BME280;16440;59.494;17.978;2022-08-21T00:56:44;100949.22;;;15.51;100.00
29485;BME280;16440;59.494;17.978;2022-08-21T00:59:13;100941.22;;;15.46;100.00
29485;BME280;16440;59.494;17.978;2022-08-21T01:04:09;100944.12;;;15.42;100.00
29485;BME280;16440;59.494;17.978;2022-08-21T01:06:42;100938.94;;;15.36;100.00
29485;BME280;16440;59.494;17.978;2022-08-21T01:09:12;100934.59;;;15.31;100.00
29485;BME280;16440;59.494;17.978;2022-08-21T01:11:47;100932.06;;;15.27;100.00
29485;BME280;16440;59.494;17.978;2022-08-21T01:14:22;100937.47;;;15.27;100.00
29485;BME280;16440;59.494;17.978;2022-08-21T01:16:54;100937.44;;;15.28;100.00
29485;BME280;16440;59.494;17.978;2022-08-21T01:19:27;100933.84;;;15.28;100.00
29485;BME280;16440;59.494;17.978;2022-08-21T01:22:01;100929.34;;;15.27;100.00
29485;BME280;16440;59.494;17.978;2022-08-21T01:24:51;100934.78;;;15.27;100.00
29485;BME280;16440;59.494;17.978;2022-08-21T01:27:19;100926.81;;;15.22;100.00
29485;BME280;16440;59.494;17.978;2022-08-21T01:29:56;100927.88;;;15.18;100.00
29485;BME280;16440;59.494;17.978;2022-08-21T01:32:28;100920.69;;;15.17;100.00
29485;BME280;16440;59.494;17.978;2022-08-21T01:34:59;100918.13;;;15.14;100.00
29485;BME280;16440;59.494;17.978;2022-08-21T01:37:29;100920.12;;;15.09;100.00
29485;BME280;16440;59.494;17.978;2022-08-21T01:40:01;100917.47;;;15.08;100.00
29485;BME280;16440;59.494;17.978;2022-08-21T01:42:33;100913.16;;;15.02;100.00
29485;BME280;16440;59.494;17.978;2022-08-21T01:45:01;100906.09;;;14.98;100.00
29485;BME280;16440;59.494;17.978;2022-08-21T01:47:29;100900.78;;;14.95;100.00
29485;BME280;16440;59.494;17.978;2022-08-21T01:50:01;100911.63;;;14.95;100.00
29485;BME280;16440;59.494;17.978;2022-08-21T01:52:31;100912.63;;;14.93;100.00
29485;BME280;16440;59.494;17.978;2022-08-21T01:55:04;100929.00;;;14.89;100.00
29485;BME280;16440;59.494;17.978;2022-08-21T01:57:35;100926.47;;;14.85;100.00
29485;BME280;16440;59.494;17.978;2022-08-21T02:00:11;100933.75;;;14.83;100.00
29485;BME280;16440;59.494;17.978;2022-08-21T02:02:40;100929.41;;;14.79;100.00
29485;BME280;16440;59.494;17.978;2022-08-21T02:05:12;100930.47;;;14.75;100.00
29485;BME280;16440;59.494;17.978;2022-08-21T02:07:48;100936.81;;;14.74;100.00
29485;BME280;16440;59.494;17.978;2022-08-21T02:10:22;100939.44;;;14.77;100.00
29485;BME280;16440;59.494;17.978;2022-08-21T02:13:00;100926.78;;;14.77;100.00
29485;BME280;16440;59.494;17.978;2022-08-21T02:15:29;100934.78;;;14.80;100.00
29485;BME280;16440;59.494;17.978;2022-08-21T02:18:02;100938.37;;;14.81;100.00
29485;BME280;16440;59.494;17.978;2022-08-21T02:20:36;100937.53;;;14.79;100.00
29485;BME280;16440;59.494;17.978;2022-08-21T02:23:10;100934.00;;;14.77;100.00
29485;BME280;16440;59.494;17.978;2022-08-21T02:25:39;100924.25;;;14.73;100.00
29485;BME280;16440;59.494;17.978;2022-08-21T02:28:14;100921.56;;;14.71;100.00
29485;BME280;16440;59.494;17.978;2022-08-21T02:30:54;100922.50;;;14.70;100.00
29485;BME280;16440;59.494;17.978;2022-08-21T02:33:25;100926.22;;;14.68;100.00
29485;BME280;16440;59.494;17.978;2022-08-21T02:35:57;100923.62;;;14.65;100.00
29485;BME280;16440;59.494;17.978;2022-08-21T02:41:05;100920.91;;;14.65;100.00
29485;BME280;16440;59.494;17.978;2022-08-21T02:46:06;100921.28;;;14.54;100.00
29485;BME280;16440;59.494;17.978;2022-08-21T02:48:35;100915.13;;;14.51;100.00
29485;BME280;16440;59.494;17.978;2022-08-21T02:51:07;100918.00;;;14.46;100.00
29485;BME280;16440;59.494;17.978;2022-08-21T02:53:43;100922.59;;;14.44;100.00
29485;BME280;16440;59.494;17.978;2022-08-21T02:56:16;100926.06;;;14.48;100.00
29485;BME280;16440;59.494;17.978;2022-08-21T02:58:51;100920.53;;;14.51;100.00
29485;BME280;16440;59.494;17.978;2022-08-21T03:01:25;100912.25;;;14.55;100.00
29485;BME280;16440;59.494;17.978;2022-08-21T03:04:02;100906.91;;;14.54;100.00
29485;BME280;16440;59.494;17.978;2022-08-21T03:06:31;100912.38;;;14.52;100.00
29485;BME280;16440;59.494;17.978;2022-08-21T03:09:02;100912.53;;;14.48;100.00
29485;BME280;16440;59.494;17.978;2022-08-21T03:11:34;100897.34;;;14.43;100.00
29485;BME280;16440;59.494;17.978;2022-08-21T03:14:00;100917.22;;;14.42;100.00
29485;BME280;16440;59.494;17.978;2022-08-21T03:16:29;100912.63;;;14.44;100.00
29485;BME280;16440;59.494;17.978;2022-08-21T03:18:57;100904.50;;;14.44;100.00
29485;BME280;16440;59.494;17.978;2022-08-21T03:21:33;100917.91;;;14.49;100.00
29485;BME280;16440;59.494;17.978;2022-08-21T03:24:02;100915.06;;;14.52;100.00
29485;BME280;16440;59.494;17.978;2022-08-21T03:29:10;100914.91;;;14.57;100.00
29485;BME280;16440;59.494;17.978;2022-08-21T03:31:41;100915.75;;;14.59;100.00
29485;BME280;16440;59.494;17.978;2022-08-21T03:34:17;100910.06;;;14.65;100.00
29485;BME280;16440;59.494;17.978;2022-08-21T03:36:45;100911.69;;;14.70;100.00
29485;BME280;16440;59.494;17.978;2022-08-21T03:39:20;100910.56;;;14.76;100.00
29485;BME280;16440;59.494;17.978;2022-08-21T03:41:52;100920.38;;;14.78;100.00
29485;BME280;16440;59.494;17.978;2022-08-21T03:44:26;100926.69;;;14.79;100.00
29485;BME280;16440;59.494;17.978;2022-08-21T03:46:55;100927.41;;;14.84;100.00
29485;BME280;16440;59.494;17.978;2022-08-21T03:49:27;100927.34;;;14.85;100.00
29485;BME280;16440;59.494;17.978;2022-08-21T03:51:55;100923.75;;;14.85;100.00
29485;BME280;16440;59.494;17.978;2022-08-21T03:54:30;100918.34;;;14.85;100.00
29485;BME280;16440;59.494;17.978;2022-08-21T03:57:00;100907.38;;;14.88;100.00
29485;BME280;16440;59.494;17.978;2022-08-21T03:59:31;100915.28;;;14.94;100.00
29485;BME280;16440;59.494;17.978;2022-08-21T04:02:03;100915.06;;;15.00;100.00
29485;BME280;16440;59.494;17.978;2022-08-21T04:04:32;100915.81;;;15.04;100.00
29485;BME280;16440;59.494;17.978;2022-08-21T04:07:01;100923.72;;;15.10;100.00
29485;BME280;16440;59.494;17.978;2022-08-21T04:12:01;100925.03;;;15.21;100.00
29485;BME280;16440;59.494;17.978;2022-08-21T04:14:33;100928.47;;;15.26;100.00
29485;BME280;16440;59.494;17.978;2022-08-21T04:17:01;100922.94;;;15.29;100.00
29485;BME280;16440;59.494;17.978;2022-08-21T04:22:05;100302.59;;;11.75;100.00
29485;BME280;16440;59.494;17.978;2022-08-21T04:24:35;100925.97;;;15.44;100.00
29485;BME280;16440;59.494;17.978;2022-08-21T04:27:05;100934.81;;;15.49;100.00
29485;BME280;16440;59.494;17.978;2022-08-21T04:32:03;100929.09;;;15.56;100.00
29485;BME280;16440;59.494;17.978;2022-08-21T04:34:35;100929.84;;;15.60;100.00
29485;BME280;16440;59.494;17.978;2022-08-21T04:37:06;100920.63;;;15.64;100.00
29485;BME280;16440;59.494;17.978;2022-08-21T04:42:04;100930.16;;;15.74;100.00
29485;BME280;16440;59.494;17.978;2022-08-21T04:44:35;100926.38;;;15.78;100.00
29485;BME280;16440;59.494;17.978;2022-08-21T04:47:07;100925.37;;;15.81;100.00
29485;BME280;16440;59.494;17.978;2022-08-21T04:52:03;100924.25;;;15.86;100.00
29485;BME280;16440;59.494;17.978;2022-08-21T04:54:32;100928.59;;;15.90;100.00
29485;BME280;16440;59.494;17.978;2022-08-21T04:57:06;100918.47;;;15.94;100.00
29485;BME280;16440;59.494;17.978;2022-08-21T05:02:09;100926.28;;;16.01;100.00
29485;BME280;16440;59.494;17.978;2022-08-21T05:04:45;100927.84;;;16.07;100.00
29485;BME280;16440;59.494;17.978;2022-08-21T05:07:19;100913.19;;;16.11;100.00
29485;BME280;16440;59.494;17.978;2022-08-21T05:09:53;100908.66;;;16.11;100.00
29485;BME280;16440;59.494;17.978;2022-08-21T05:15:08;100912.00;;;16.18;100.00
29485;BME280;16440;59.494;17.978;2022-08-21T05:17:42;100910.16;;;16.18;100.00
29485;BME280;16440;59.494;17.978;2022-08-21T05:20:14;100906.38;;;16.23;100.00
29485;BME280;16440;59.494;17.978;2022-08-21T05:22:43;100903.59;;;16.24;100.00
29485;BME280;16440;59.494;17.978;2022-08-21T05:25:14;100902.56;;;16.27;100.00
29485;BME280;16440;59.494;17.978;2022-08-21T05:27:47;100901.56;;;16.29;100.00
29485;BME280;16440;59.494;17.978;2022-08-21T05:30:19;100909.50;;;16.34;100.00
29485;BME280;16440;59.494;17.978;2022-08-21T05:32:56;100912.91;;;16.39;100.00
29485;BME280;16440;59.494;17.978;2022-08-21T05:35:26;100911.81;;;16.43;100.00
29485;BME280;16440;59.494;17.978;2022-08-21T05:37:59;100914.31;;;16.47;100.00
29485;BME280;16440;59.494;17.978;2022-08-21T05:43:04;100899.50;;;16.54;100.00
29485;BME280;16440;59.494;17.978;2022-08-21T05:45:37;100903.00;;;16.58;100.00
29485;BME280;16440;59.494;17.978;2022-08-21T05:48:13;100909.25;;;16.60;100.00
29485;BME280;16440;59.494;17.978;2022-08-21T05:50:45;100904.47;;;16.65;100.00
29485;BME280;16440;59.494;17.978;2022-08-21T05:53:16;100905.22;;;16.69;100.00
29485;BME280;16440;59.494;17.978;2022-08-21T05:55:46;100898.56;;;16.76;100.00
29485;BME280;16440;59.494;17.978;2022-08-21T05:58:19;100896.28;;;16.85;100.00
29485;BME280;16440;59.494;17.978;2022-08-21T06:00:52;100890.44;;;16.94;100.00
29485;BME280;16440;59.494;17.978;2022-08-21T06:03:25;100892.72;;;17.03;100.00
29485;BME280;16440;59.494;17.978;2022-08-21T06:06:06;100892.28;;;17.13;100.00
29485;BME280;16440;59.494;17.978;2022-08-21T06:08:42;100890.16;;;17.19;100.00
29485;BME280;16440;59.494;17.978;2022-08-21T06:11:11;100881.78;;;17.24;100.00
29485;BME280;16440;59.494;17.978;2022-08-21T06:13:43;100898.66;;;17.30;100.00
29485;BME280;16440;59.494;17.978;2022-08-21T06:16:16;100884.81;;;17.35;100.00
29485;BME280;16440;59.494;17.978;2022-08-21T06:18:52;100875.72;;;17.36;100.00
29485;BME280;16440;59.494;17.978;2022-08-21T06:21:20;100883.59;;;17.42;100.00
29485;BME280;16440;59.494;17.978;2022-08-21T06:23:51;100881.59;;;17.45;100.00
29485;BME280;16440;59.494;17.978;2022-08-21T06:26:20;100878.50;;;17.53;100.00
29485;BME280;16440;59.494;17.978;2022-08-21T06:28:50;100880.03;;;17.59;100.00
29485;BME280;16440;59.494;17.978;2022-08-21T06:31:25;100903.47;;;17.63;100.00
29485;BME280;16440;59.494;17.978;2022-08-21T06:33:53;100873.12;;;17.70;100.00
29485;BME280;16440;59.494;17.978;2022-08-21T06:36:24;100870.97;;;17.77;100.00
29485;BME280;16440;59.494;17.978;2022-08-21T06:38:53;100878.34;;;17.75;100.00
29485;BME280;16440;59.494;17.978;2022-08-21T06:41:21;100882.72;;;17.77;100.00
29485;BME280;16440;59.494;17.978;2022-08-21T06:43:51;100873.78;;;17.75;100.00
29485;BME280;16440;59.494;17.978;2022-08-21T06:46:20;100879.22;;;17.75;100.00
29485;BME280;16440;59.494;17.978;2022-08-21T06:48:48;100877.44;;;17.74;100.00
29485;BME280;16440;59.494;17.978;2022-08-21T06:51:16;100879.22;;;17.75;100.00
29485;BME280;16440;59.494;17.978;2022-08-21T06:53:45;100881.78;;;17.78;100.00
29485;BME280;16440;59.494;17.978;2022-08-21T06:56:13;100883.12;;;17.87;100.00
29485;BME280;16440;59.494;17.978;2022-08-21T06:58:42;100887.72;;;17.86;100.00
29485;BME280;16440;59.494;17.978;2022-08-21T07:01:16;100883.88;;;17.90;100.00
29485;BME280;16440;59.494;17.978;2022-08-21T07:03:44;100872.81;;;17.93;100.00
29485;BME280;16440;59.494;17.978;2022-08-21T07:06:15;100870.28;;;17.90;100.00
29485;BME280;16440;59.494;17.978;2022-08-21T07:08:43;100864.59;;;17.95;100.00
29485;BME280;16440;59.494;17.978;2022-08-21T07:11:14;100866.25;;;17.98;100.00
29485;BME280;16440;59.494;17.978;2022-08-21T07:13:45;100873.94;;;18.07;100.00
29485;BME280;16440;59.494;17.978;2022-08-21T07:16:15;100892.72;;;18.13;100.00
29485;BME280;16440;59.494;17.978;2022-08-21T07:18:44;100859.84;;;18.16;100.00
29485;BME280;16440;59.494;17.978;2022-08-21T07:21:14;100869.31;;;18.26;100.00
29485;BME280;16440;59.494;17.978;2022-08-21T07:23:47;100870.50;;;18.37;100.00
29485;BME280;16440;59.494;17.978;2022-08-21T07:26:20;100868.94;;;18.49;100.00
29485;BME280;16440;59.494;17.978;2022-08-21T07:28:50;100865.94;;;18.55;100.00
29485;BME280;16440;59.494;17.978;2022-08-21T07:31:21;100868.41;;;18.60;100.00
29485;BME280;16440;59.494;17.978;2022-08-21T07:33:52;100862.78;;;18.63;100.00
29485;BME280;16440;59.494;17.978;2022-08-21T07:36:21;100874.56;;;18.63;100.00
29485;BME280;16440;59.494;17.978;2022-08-21T07:38:49;100878.28;;;18.62;100.00
29485;BME280;16440;59.494;17.978;2022-08-21T07:41:21;100865.50;;;18.63;100.00
29485;BME280;16440;59.494;17.978;2022-08-21T07:43:50;100865.75;;;18.58;100.00
29485;BME280;16440;59.494;17.978;2022-08-21T07:46:23;100867.47;;;18.61;100.00
29485;BME280;16440;59.494;17.978;2022-08-21T07:48:51;100858.78;;;18.70;100.00
29485;BME280;16440;59.494;17.978;2022-08-21T07:51:23;100857.22;;;18.82;100.00
29485;BME280;16440;59.494;17.978;2022-08-21T07:53:55;100853.87;;;18.92;100.00
29485;BME280;16440;59.494;17.978;2022-08-21T07:56:25;100859.38;;;19.08;100.00
29485;BME280;16440;59.494;17.978;2022-08-21T07:58:55;100864.31;;;19.17;100.00
29485;BME280;16440;59.494;17.978;2022-08-21T08:01:28;100858.31;;;19.26;100.00
29485;BME280;16440;59.494;17.978;2022-08-21T08:03:56;100856.81;;;19.36;100.00
29485;BME280;16440;59.494;17.978;2022-08-21T08:06:24;100863.63;;;19.45;100.00
29485;BME280;16440;59.494;17.978;2022-08-21T08:08:56;100854.81;;;19.55;100.00
29485;BME280;16440;59.494;17.978;2022-08-21T08:11:24;100862.28;;;19.67;100.00
29485;BME280;16440;59.494;17.978;2022-08-21T08:14:00;100867.81;;;19.82;100.00
29485;BME280;16440;59.494;17.978;2022-08-21T08:16:33;100856.53;;;19.88;100.00
29485;BME280;16440;59.494;17.978;2022-08-21T08:19:04;100857.72;;;19.98;100.00
29485;BME280;16440;59.494;17.978;2022-08-21T08:24:29;100855.97;;;20.27;100.00
29485;BME280;16440;59.494;17.978;2022-08-21T08:32:03;100854.53;;;20.35;100.00
29485;BME280;16440;59.494;17.978;2022-08-21T08:34:33;100858.69;;;20.27;100.00
29485;BME280;16440;59.494;17.978;2022-08-21T08:37:02;100855.81;;;20.44;100.00
29485;BME280;16440;59.494;17.978;2022-08-21T08:39:31;100850.66;;;20.53;100.00
29485;BME280;16440;59.494;17.978;2022-08-21T08:42:05;100848.53;;;20.59;100.00
29485;BME280;16440;59.494;17.978;2022-08-21T08:44:36;100848.34;;;20.62;100.00
29485;BME280;16440;59.494;17.978;2022-08-21T08:47:13;100850.19;;;20.75;100.00
29485;BME280;16440;59.494;17.978;2022-08-21T08:49:49;100852.44;;;20.83;100.00
29485;BME280;16440;59.494;17.978;2022-08-21T08:52:26;100847.94;;;20.96;100.00
29485;BME280;16440;59.494;17.978;2022-08-21T08:55:02;100853.97;;;21.01;100.00
29485;BME280;16440;59.494;17.978;2022-08-21T08:57:31;100856.25;;;21.09;100.00
29485;BME280;16440;59.494;17.978;2022-08-21T09:00:07;100854.19;;;21.26;100.00
29485;BME280;16440;59.494;17.978;2022-08-21T09:02:38;100855.13;;;21.39;100.00
29485;BME280;16440;59.494;17.978;2022-08-21T09:05:09;100851.31;;;21.69;100.00
29485;BME280;16440;59.494;17.978;2022-08-21T09:07:51;100858.09;;;21.90;100.00
29485;BME280;16440;59.494;17.978;2022-08-21T09:10:22;100847.34;;;22.14;100.00
29485;BME280;16440;59.494;17.978;2022-08-21T09:13:01;100859.12;;;22.29;100.00
29485;BME280;16440;59.494;17.978;2022-08-21T09:18:23;100850.09;;;22.27;100.00
29485;BME280;16440;59.494;17.978;2022-08-21T09:21:06;100857.34;;;22.28;100.00
29485;BME280;16440;59.494;17.978;2022-08-21T09:23:55;100847.03;;;22.31;100.00
29485;BME280;16440;59.494;17.978;2022-08-21T09:26:28;100850.87;;;22.29;100.00
29485;BME280;16440;59.494;17.978;2022-08-21T09:28:59;100852.84;;;22.27;100.00
29485;BME280;16440;59.494;17.978;2022-08-21T09:31:30;100858.19;;;22.15;100.00
29485;BME280;16440;59.494;17.978;2022-08-21T09:34:01;100849.41;;;22.10;100.00
29485;BME280;16440;59.494;17.978;2022-08-21T09:39:00;100853.34;;;22.06;100.00
29485;BME280;16440;59.494;17.978;2022-08-21T09:44:02;100858.47;;;21.98;100.00
29485;BME280;16440;59.494;17.978;2022-08-21T09:46:49;100861.22;;;21.98;100.00
29485;BME280;16440;59.494;17.978;2022-08-21T09:49:27;100864.22;;;22.08;100.00
29485;BME280;16440;59.494;17.978;2022-08-21T09:51:57;100861.47;;;22.08;100.00
29485;BME280;16440;59.494;17.978;2022-08-21T09:54:30;100859.78;;;22.05;100.00
29485;BME280;16440;59.494;17.978;2022-08-21T09:57:11;100855.50;;;22.01;100.00
29485;BME280;16440;59.494;17.978;2022-08-21T10:00:10;100857.50;;;21.99;100.00
29485;BME280;16440;59.494;17.978;2022-08-21T10:02:39;100847.66;;;22.09;100.00
29485;BME280;16440;59.494;17.978;2022-08-21T10:05:17;100853.34;;;22.06;100.00
29485;BME280;16440;59.494;17.978;2022-08-21T10:07:45;100861.56;;;22.06;100.00
29485;BME280;16440;59.494;17.978;2022-08-21T10:10:16;100861.78;;;22.03;100.00
29485;BME280;16440;59.494;17.978;2022-08-21T10:12:53;100855.44;;;22.03;100.00
29485;BME280;16440;59.494;17.978;2022-08-21T10:15:33;100851.81;;;22.02;100.00
29485;BME280;16440;59.494;17.978;2022-08-21T10:18:10;100864.72;;;22.00;100.00
29485;BME280;16440;59.494;17.978;2022-08-21T10:20:46;100868.25;;;22.02;100.00
29485;BME280;16440;59.494;17.978;2022-08-21T10:26:05;100863.22;;;22.09;100.00
29485;BME280;16440;59.494;17.978;2022-08-21T10:31:14;100860.84;;;22.30;100.00
29485;BME280;16440;59.494;17.978;2022-08-21T10:33:52;100858.22;;;22.41;100.00
29485;BME280;16440;59.494;17.978;2022-08-21T10:36:29;100853.63;;;22.54;100.00
29485;BME280;16440;59.494;17.978;2022-08-21T10:39:07;100854.72;;;22.64;100.00
29485;BME280;16440;59.494;17.978;2022-08-21T10:42:02;100857.37;;;22.65;100.00
29485;BME280;16440;59.494;17.978;2022-08-21T10:44:37;100852.34;;;22.72;100.00
29485;BME280;16440;59.494;17.978;2022-08-21T10:47:08;100853.69;;;22.79;100.00
29485;BME280;16440;59.494;17.978;2022-08-21T10:49:42;100846.09;;;22.83;100.00
29485;BME280;16440;59.494;17.978;2022-08-21T10:52:49;100852.78;;;22.91;98.41
29485;BME280;16440;59.494;17.978;2022-08-21T10:55:23;100855.84;;;22.99;100.00
29485;BME280;16440;59.494;17.978;2022-08-21T10:57:56;100856.72;;;22.87;88.95
29485;BME280;16440;59.494;17.978;2022-08-21T11:00:28;100858.72;;;22.73;89.75
29485;BME280;16440;59.494;17.978;2022-08-21T11:03:02;100858.13;;;22.55;86.28
29485;BME280;16440;59.494;17.978;2022-08-21T11:08:06;100863.94;;;22.38;92.06
29485;BME280;16440;59.494;17.978;2022-08-21T11:13:08;100863.25;;;22.34;99.98
29485;BME280;16440;59.494;17.978;2022-08-21T11:15:43;100857.75;;;22.21;99.65
29485;BME280;16440;59.494;17.978;2022-08-21T11:18:24;100861.16;;;22.12;100.00
29485;BME280;16440;59.494;17.978;2022-08-21T11:21:02;100859.47;;;22.10;100.00
29485;BME280;16440;59.494;17.978;2022-08-21T11:23:41;100856.66;;;22.11;100.00
29485;BME280;16440;59.494;17.978;2022-08-21T11:26:15;100857.31;;;22.15;100.00
29485;BME280;16440;59.494;17.978;2022-08-21T11:28:50;100854.25;;;22.19;100.00
29485;BME280;16440;59.494;17.978;2022-08-21T11:31:32;100855.34;;;22.30;100.00
29485;BME280;16440;59.494;17.978;2022-08-21T11:34:12;100851.31;;;22.35;100.00
29485;BME280;16440;59.494;17.978;2022-08-21T11:36:49;100854.19;;;22.46;100.00
29485;BME280;16440;59.494;17.978;2022-08-21T11:39:25;100836.50;;;22.63;100.00
29485;BME280;16440;59.494;17.978;2022-08-21T11:42:04;100855.09;;;22.72;100.00
29485;BME280;16440;59.494;17.978;2022-08-21T11:44:38;100851.91;;;22.78;100.00
29485;BME280;16440;59.494;17.978;2022-08-21T11:47:18;100856.97;;;22.84;100.00
29485;BME280;16440;59.494;17.978;2022-08-21T11:49:57;100855.75;;;22.88;100.00
29485;BME280;16440;59.494;17.978;2022-08-21T11:52:33;100862.03;;;22.90;100.00
29485;BME280;16440;59.494;17.978;2022-08-21T11:55:07;100861.13;;;22.77;100.00
29485;BME280;16440;59.494;17.978;2022-08-21T11:57:43;100872.22;;;22.76;100.00
29485;BME280;16440;59.494;17.978;2022-08-21T12:00:19;100871.91;;;22.80;100.00
29485;BME280;16440;59.494;17.978;2022-08-21T12:02:51;100866.81;;;22.87;100.00
29485;BME280;16440;59.494;17.978;2022-08-21T12:05:30;100864.75;;;22.90;100.00
29485;BME280;16440;59.494;17.978;2022-08-21T12:08:06;100860.25;;;22.89;100.00
29485;BME280;16440;59.494;17.978;2022-08-21T12:13:25;100873.50;;;22.95;100.00
29485;BME280;16440;59.494;17.978;2022-08-21T12:16:04;100876.91;;;22.86;97.68
29485;BME280;16440;59.494;17.978;2022-08-21T12:18:32;100872.75;;;22.93;100.00
29485;BME280;16440;59.494;17.978;2022-08-21T12:21:05;100867.03;;;22.96;97.79
29485;BME280;16440;59.494;17.978;2022-08-21T12:23:48;100868.91;;;23.08;100.00
29485;BME280;16440;59.494;17.978;2022-08-21T12:26:28;100866.38;;;23.18;96.67
29485;BME280;16440;59.494;17.978;2022-08-21T12:29:22;100861.47;;;23.34;92.67
29485;BME280;16440;59.494;17.978;2022-08-21T12:31:55;100858.41;;;23.51;87.73
29485;BME280;16440;59.494;17.978;2022-08-21T12:34:29;100866.47;;;23.66;97.03
29485;BME280;16440;59.494;17.978;2022-08-21T12:37:02;100855.66;;;23.75;76.32
29485;BME280;16440;59.494;17.978;2022-08-21T12:39:36;100860.16;;;23.76;85.19
29485;BME280;16440;59.494;17.978;2022-08-21T12:42:43;100861.91;;;23.77;79.92
29485;BME280;16440;59.494;17.978;2022-08-21T12:45:18;100862.84;;;23.65;77.96
29485;BME280;16440;59.494;17.978;2022-08-21T12:47:51;100872.47;;;23.47;82.17
29485;BME280;16440;59.494;17.978;2022-08-21T12:50:36;100873.19;;;23.12;76.95
29485;BME280;16440;59.494;17.978;2022-08-21T12:53:15;100877.94;;;22.85;88.17
29485;BME280;16440;59.494;17.978;2022-08-21T12:55:50;100876.22;;;22.57;77.14
29485;BME280;16440;59.494;17.978;2022-08-21T12:58:21;100863.94;;;22.38;80.59
29485;BME280;16440;59.494;17.978;2022-08-21T13:00:55;100873.34;;;22.34;74.61
29485;BME280;16440;59.494;17.978;2022-08-21T13:03:24;100864.28;;;22.46;85.38
29485;BME280;16440;59.494;17.978;2022-08-21T13:05:53;100855.38;;;22.67;84.52
29485;BME280;16440;59.494;17.978;2022-08-21T13:08:27;100856.06;;;22.96;87.49
29485;BME280;16440;59.494;17.978;2022-08-21T13:11:03;100864.16;;;23.10;79.14
29485;BME280;16440;59.494;17.978;2022-08-21T13:13:35;100862.41;;;23.09;71.88
29485;BME280;16440;59.494;17.978;2022-08-21T13:16:13;100862.62;;;23.06;74.92
29485;BME280;16440;59.494;17.978;2022-08-21T13:18:58;100865.75;;;22.89;75.68
29485;BME280;16440;59.494;17.978;2022-08-21T13:24:17;100856.50;;;22.65;75.37
29485;BME280;16440;59.494;17.978;2022-08-21T13:26:48;100852.78;;;22.66;79.37
29485;BME280;16440;59.494;17.978;2022-08-21T13:29:19;100850.91;;;22.66;71.19
29485;BME280;16440;59.494;17.978;2022-08-21T13:31:51;100855.62;;;22.77;69.17
29485;BME280;16440;59.494;17.978;2022-08-21T13:34:22;100847.41;;;22.77;74.26
29485;BME280;16440;59.494;17.978;2022-08-21T13:36:54;100844.78;;;22.76;70.88
29485;BME280;16440;59.494;17.978;2022-08-21T13:39:28;100842.91;;;22.76;70.73
29485;BME280;16440;59.494;17.978;2022-08-21T13:41:58;100843.56;;;22.80;69.51
29485;BME280;16440;59.494;17.978;2022-08-21T13:44:34;100844.66;;;22.90;69.12
29485;BME280;16440;59.494;17.978;2022-08-21T13:47:04;100845.22;;;22.95;65.47
29485;BME280;16440;59.494;17.978;2022-08-21T13:49:33;100845.41;;;22.92;63.57
29485;BME280;16440;59.494;17.978;2022-08-21T13:52:01;100842.25;;;22.85;59.06
29485;BME280;16440;59.494;17.978;2022-08-21T13:54:34;100844.78;;;22.88;66.72
29485;BME280;16440;59.494;17.978;2022-08-21T13:57:02;100848.72;;;22.97;63.15
29485;BME280;16440;59.494;17.978;2022-08-21T13:59:33;100847.28;;;23.04;62.97
29485;BME280;16440;59.494;17.978;2022-08-21T14:02:08;100849.91;;;23.05;63.20
29485;BME280;16440;59.494;17.978;2022-08-21T14:04:44;100843.53;;;23.05;62.05
29485;BME280;16440;59.494;17.978;2022-08-21T14:07:27;100847.28;;;23.04;56.36
29485;BME280;16440;59.494;17.978;2022-08-21T14:10:05;100839.47;;;23.10;58.18
29485;BME280;16440;59.494;17.978;2022-08-21T14:12:47;100843.87;;;23.13;56.93